TW-0025 weather

Taipei City Government Fire Bureau Helipad
Taipei, Taipei (municipality), Taiwan

Public forecast

Using degrees Celsius for public forecast. Weather courtesy of forecast.io.

Closest aviation weather report (METAR) to Taipei City Government Fire Bureau Helipad

Closest report is Taipei Songshan Airport, 2.0 nm (3.6 km) NNW. Retrieved 2020/04/08 11:30 UTC (22 seconds ago):

RCSS 081130Z 10008KT 9999 FEW020 BKN030 BKN045 19/15 Q1016 NOSIG RMK A3003

Closest aviation forecast (TAF) to Taipei City Government Fire Bureau Helipad

Closest forecast is Taipei Songshan Airport, 2.0 nm (3.6 km) NNW. Retrieved 2020/04/08 06:00 UTC (6 hours ago):

TAF RCSS 080500Z 0806/0906 09005KT 9999 FEW010 BKN032 TEMPO 0806/0812 08010KT FEW010 BKN020 TEMPO 0818/0824 VRB03KT FEW010 BKN020 BKN040